sensor_id;sensor_type;location;lat;lon;timestamp;P1;durP1;ratioP1;P2;durP2;ratioP2
69765;SDS011;57039;48.014;21.384;2022-12-18T00:01:50;52.47;;;22.50;;
69765;SDS011;57039;48.014;21.384;2022-12-18T00:02:53;57.33;;;22.23;;
69765;SDS011;57039;48.014;21.384;2022-12-18T04:07:05;58.97;;;23.50;;
69765;SDS011;57039;48.014;21.384;2022-12-18T04:08:11;59.88;;;25.62;;
69765;SDS011;57039;48.014;21.384;2022-12-18T04:09:16;55.67;;;23.65;;
69765;SDS011;57039;48.014;21.384;2022-12-18T04:10:20;56.33;;;22.40;;
69765;SDS011;57039;48.014;21.384;2022-12-18T04:11:24;53.97;;;24.55;;
69765;SDS011;57039;48.014;21.384;2022-12-18T04:12:28;54.35;;;24.45;;
69765;SDS011;57039;48.014;21.384;2022-12-18T04:13:33;57.62;;;25.80;;
69765;SDS011;57039;48.014;21.384;2022-12-18T04:14:40;54.37;;;23.93;;
69765;SDS011;57039;48.014;21.384;2022-12-18T04:15:43;59.25;;;24.60;;
69765;SDS011;57039;48.014;21.384;2022-12-18T04:16:48;56.67;;;24.00;;
69765;SDS011;57039;48.014;21.384;2022-12-18T04:17:51;54.88;;;23.87;;
69765;SDS011;57039;48.014;21.384;2022-12-18T04:18:54;54.72;;;24.08;;
69765;SDS011;57039;48.014;21.384;2022-12-18T04:19:58;56.25;;;24.60;;
69765;SDS011;57039;48.014;21.384;2022-12-18T04:21:01;62.72;;;23.45;;
69765;SDS011;57039;48.014;21.384;2022-12-18T04:22:05;53.10;;;22.20;;
69765;SDS011;57039;48.014;21.384;2022-12-18T04:23:08;54.72;;;22.92;;
69765;SDS011;57039;48.014;21.384;2022-12-18T04:24:12;49.25;;;22.58;;
69765;SDS011;57039;48.014;21.384;2022-12-18T04:25:15;56.30;;;24.57;;
69765;SDS011;57039;48.014;21.384;2022-12-18T04:26:21;58.33;;;23.90;;
69765;SDS011;57039;48.014;21.384;2022-12-18T04:27:24;58.03;;;22.52;;
69765;SDS011;57039;48.014;21.384;2022-12-18T04:28:28;56.40;;;23.25;;
69765;SDS011;57039;48.014;21.384;2022-12-18T04:29:31;57.22;;;23.35;;
69765;SDS011;57039;48.014;21.384;2022-12-18T04:30:36;44.70;;;20.85;;
69765;SDS011;57039;48.014;21.384;2022-12-18T04:31:39;56.97;;;23.12;;
69765;SDS011;57039;48.014;21.384;2022-12-18T04:32:42;54.25;;;22.90;;
69765;SDS011;57039;48.014;21.384;2022-12-18T04:33:51;56.75;;;23.58;;
69765;SDS011;57039;48.014;21.384;2022-12-18T04:34:55;58.83;;;23.95;;
69765;SDS011;57039;48.014;21.384;2022-12-18T04:35:58;58.47;;;24.13;;
69765;SDS011;57039;48.014;21.384;2022-12-18T04:37:01;52.00;;;23.90;;
69765;SDS011;57039;48.014;21.384;2022-12-18T04:38:05;53.60;;;22.77;;
69765;SDS011;57039;48.014;21.384;2022-12-18T04:39:11;51.65;;;22.10;;
69765;SDS011;57039;48.014;21.384;2022-12-18T04:40:19;57.20;;;24.02;;
69765;SDS011;57039;48.014;21.384;2022-12-18T04:41:23;55.58;;;23.30;;
69765;SDS011;57039;48.014;21.384;2022-12-18T04:42:26;63.70;;;25.10;;
69765;SDS011;57039;48.014;21.384;2022-12-18T04:43:29;64.93;;;27.10;;
69765;SDS011;57039;48.014;21.384;2022-12-18T04:44:32;60.28;;;26.23;;
69765;SDS011;57039;48.014;21.384;2022-12-18T04:45:35;61.37;;;26.70;;
69765;SDS011;57039;48.014;21.384;2022-12-18T04:46:38;58.10;;;25.90;;
69765;SDS011;57039;48.014;21.384;2022-12-18T04:47:41;63.47;;;24.30;;
69765;SDS011;57039;48.014;21.384;2022-12-18T04:48:45;58.40;;;24.48;;
69765;SDS011;57039;48.014;21.384;2022-12-18T04:49:49;59.92;;;23.30;;
69765;SDS011;57039;48.014;21.384;2022-12-18T04:50:52;54.20;;;23.02;;
69765;SDS011;57039;48.014;21.384;2022-12-18T04:51:55;59.42;;;21.87;;
69765;SDS011;57039;48.014;21.384;2022-12-18T04:52:58;67.68;;;24.40;;
69765;SDS011;57039;48.014;21.384;2022-12-18T04:54:01;74.78;;;25.70;;
69765;SDS011;57039;48.014;21.384;2022-12-18T04:55:04;65.18;;;23.73;;
69765;SDS011;57039;48.014;21.384;2022-12-18T04:56:08;60.65;;;24.00;;
69765;SDS011;57039;48.014;21.384;2022-12-18T04:57:13;59.13;;;23.57;;
69765;SDS011;57039;48.014;21.384;2022-12-18T04:58:16;62.55;;;24.02;;
69765;SDS011;57039;48.014;21.384;2022-12-18T04:59:19;63.50;;;22.90;;
69765;SDS011;57039;48.014;21.384;2022-12-18T05:00:23;70.15;;;26.00;;
69765;SDS011;57039;48.014;21.384;2022-12-18T05:01:26;71.03;;;26.95;;
69765;SDS011;57039;48.014;21.384;2022-12-18T05:02:35;73.65;;;26.02;;
69765;SDS011;57039;48.014;21.384;2022-12-18T05:03:39;68.00;;;24.65;;
69765;SDS011;57039;48.014;21.384;2022-12-18T05:04:43;73.72;;;26.55;;
69765;SDS011;57039;48.014;21.384;2022-12-18T05:05:49;72.43;;;26.12;;
69765;SDS011;57039;48.014;21.384;2022-12-18T05:06:53;71.72;;;26.87;;
69765;SDS011;57039;48.014;21.384;2022-12-18T05:07:56;99.67;;;40.73;;
69765;SDS011;57039;48.014;21.384;2022-12-18T05:08:59;112.85;;;43.70;;
69765;SDS011;57039;48.014;21.384;2022-12-18T05:10:02;103.87;;;36.97;;
69765;SDS011;57039;48.014;21.384;2022-12-18T05:11:09;105.12;;;38.72;;
69765;SDS011;57039;48.014;21.384;2022-12-18T05:12:14;120.70;;;48.00;;
69765;SDS011;57039;48.014;21.384;2022-12-18T05:13:16;76.93;;;29.73;;
69765;SDS011;57039;48.014;21.384;2022-12-18T05:14:19;90.25;;;33.38;;
69765;SDS011;57039;48.014;21.384;2022-12-18T05:15:22;121.60;;;47.72;;
69765;SDS011;57039;48.014;21.384;2022-12-18T05:16:25;136.37;;;53.97;;
69765;SDS011;57039;48.014;21.384;2022-12-18T05:17:28;138.95;;;55.12;;
69765;SDS011;57039;48.014;21.384;2022-12-18T05:18:31;104.37;;;37.20;;
69765;SDS011;57039;48.014;21.384;2022-12-18T05:19:34;102.40;;;41.88;;
69765;SDS011;57039;48.014;21.384;2022-12-18T05:20:37;78.43;;;28.45;;
69765;SDS011;57039;48.014;21.384;2022-12-18T05:21:40;71.35;;;27.65;;
69765;SDS011;57039;48.014;21.384;2022-12-18T05:22:43;64.10;;;24.45;;
69765;SDS011;57039;48.014;21.384;2022-12-18T05:23:45;59.63;;;23.30;;
69765;SDS011;57039;48.014;21.384;2022-12-18T05:24:48;64.55;;;24.75;;
69765;SDS011;57039;48.014;21.384;2022-12-18T05:25:58;70.32;;;27.30;;
69765;SDS011;57039;48.014;21.384;2022-12-18T05:27:02;62.13;;;23.80;;
69765;SDS011;57039;48.014;21.384;2022-12-18T05:28:06;65.85;;;24.55;;
69765;SDS011;57039;48.014;21.384;2022-12-18T05:29:09;95.33;;;36.57;;
69765;SDS011;57039;48.014;21.384;2022-12-18T05:30:15;90.50;;;38.80;;
69765;SDS011;57039;48.014;21.384;2022-12-18T05:31:19;77.65;;;31.20;;
69765;SDS011;57039;48.014;21.384;2022-12-18T05:32:21;63.47;;;25.83;;
69765;SDS011;57039;48.014;21.384;2022-12-18T05:33:26;63.13;;;24.08;;
69765;SDS011;57039;48.014;21.384;2022-12-18T05:34:30;60.03;;;23.00;;
69765;SDS011;57039;48.014;21.384;2022-12-18T05:35:33;64.80;;;24.42;;
69765;SDS011;57039;48.014;21.384;2022-12-18T05:36:36;63.72;;;23.40;;
69765;SDS011;57039;48.014;21.384;2022-12-18T05:37:39;60.08;;;22.80;;
69765;SDS011;57039;48.014;21.384;2022-12-18T05:38:45;78.35;;;29.55;;
69765;SDS011;57039;48.014;21.384;2022-12-18T05:39:48;67.47;;;27.03;;
69765;SDS011;57039;48.014;21.384;2022-12-18T05:40:51;74.68;;;29.50;;
69765;SDS011;57039;48.014;21.384;2022-12-18T05:41:55;69.65;;;25.42;;
69765;SDS011;57039;48.014;21.384;2022-12-18T05:42:57;91.90;;;36.58;;
69765;SDS011;57039;48.014;21.384;2022-12-18T05:44:01;131.52;;;50.75;;
69765;SDS011;57039;48.014;21.384;2022-12-18T05:45:04;65.55;;;27.58;;
69765;SDS011;57039;48.014;21.384;2022-12-18T05:46:08;65.35;;;24.12;;
69765;SDS011;57039;48.014;21.384;2022-12-18T05:47:15;58.90;;;22.90;;
69765;SDS011;57039;48.014;21.384;2022-12-18T05:48:18;60.88;;;23.17;;
69765;SDS011;57039;48.014;21.384;2022-12-18T05:49:22;65.12;;;24.83;;
69765;SDS011;57039;48.014;21.384;2022-12-18T05:50:24;66.67;;;24.03;;
69765;SDS011;57039;48.014;21.384;2022-12-18T05:51:27;69.28;;;26.23;;
69765;SDS011;57039;48.014;21.384;2022-12-18T05:52:30;63.58;;;24.08;;
69765;SDS011;57039;48.014;21.384;2022-12-18T05:53:33;63.47;;;23.83;;
69765;SDS011;57039;48.014;21.384;2022-12-18T05:54:37;67.97;;;26.27;;
69765;SDS011;57039;48.014;21.384;2022-12-18T05:55:40;65.40;;;24.50;;
69765;SDS011;57039;48.014;21.384;2022-12-18T05:56:45;70.90;;;25.00;;
69765;SDS011;57039;48.014;21.384;2022-12-18T05:57:50;65.60;;;25.02;;
69765;SDS011;57039;48.014;21.384;2022-12-18T05:58:53;66.15;;;25.37;;
69765;SDS011;57039;48.014;21.384;2022-12-18T05:59:57;66.62;;;25.25;;
69765;SDS011;57039;48.014;21.384;2022-12-18T06:01:10;67.63;;;25.20;;
69765;SDS011;57039;48.014;21.384;2022-12-18T06:02:15;66.35;;;23.27;;
69765;SDS011;57039;48.014;21.384;2022-12-18T06:03:18;64.47;;;23.08;;
69765;SDS011;57039;48.014;21.384;2022-12-18T06:04:21;64.55;;;24.55;;
69765;SDS011;57039;48.014;21.384;2022-12-18T06:05:25;75.50;;;25.83;;
69765;SDS011;57039;48.014;21.384;2022-12-18T06:06:28;68.03;;;24.90;;
69765;SDS011;57039;48.014;21.384;2022-12-18T06:07:31;64.40;;;22.27;;
69765;SDS011;57039;48.014;21.384;2022-12-18T06:08:34;77.45;;;25.30;;
69765;SDS011;57039;48.014;21.384;2022-12-18T06:09:37;67.28;;;24.33;;
69765;SDS011;57039;48.014;21.384;2022-12-18T06:10:40;67.53;;;24.05;;
69765;SDS011;57039;48.014;21.384;2022-12-18T06:11:43;64.37;;;22.67;;
69765;SDS011;57039;48.014;21.384;2022-12-18T06:12:46;75.40;;;24.33;;
69765;SDS011;57039;48.014;21.384;2022-12-18T06:13:50;67.75;;;23.33;;
69765;SDS011;57039;48.014;21.384;2022-12-18T06:14:59;75.53;;;26.20;;
69765;SDS011;57039;48.014;21.384;2022-12-18T06:16:06;96.60;;;34.60;;
69765;SDS011;57039;48.014;21.384;2022-12-18T06:17:11;124.72;;;45.40;;
69765;SDS011;57039;48.014;21.384;2022-12-18T06:18:14;102.15;;;33.97;;
69765;SDS011;57039;48.014;21.384;2022-12-18T06:19:17;106.87;;;36.63;;
69765;SDS011;57039;48.014;21.384;2022-12-18T06:20:20;99.13;;;34.65;;
69765;SDS011;57039;48.014;21.384;2022-12-18T06:21:23;91.35;;;33.35;;
69765;SDS011;57039;48.014;21.384;2022-12-18T06:22:26;96.43;;;36.23;;
69765;SDS011;57039;48.014;21.384;2022-12-18T06:23:30;127.82;;;49.13;;
69765;SDS011;57039;48.014;21.384;2022-12-18T06:24:33;120.95;;;44.33;;
69765;SDS011;57039;48.014;21.384;2022-12-18T06:25:37;86.97;;;31.23;;
69765;SDS011;57039;48.014;21.384;2022-12-18T06:26:41;75.03;;;27.23;;
69765;SDS011;57039;48.014;21.384;2022-12-18T06:27:43;62.60;;;23.73;;
69765;SDS011;57039;48.014;21.384;2022-12-18T06:28:47;69.30;;;25.80;;
69765;SDS011;57039;48.014;21.384;2022-12-18T06:29:50;62.80;;;24.00;;
69765;SDS011;57039;48.014;21.384;2022-12-18T06:30:53;68.43;;;24.27;;
69765;SDS011;57039;48.014;21.384;2022-12-18T06:31:56;62.47;;;23.83;;
69765;SDS011;57039;48.014;21.384;2022-12-18T06:32:59;69.33;;;24.57;;
69765;SDS011;57039;48.014;21.384;2022-12-18T06:34:03;68.53;;;25.77;;
69765;SDS011;57039;48.014;21.384;2022-12-18T06:35:08;80.03;;;28.33;;
69765;SDS011;57039;48.014;21.384;2022-12-18T06:36:11;126.12;;;48.65;;
69765;SDS011;57039;48.014;21.384;2022-12-18T06:37:15;90.47;;;35.85;;
69765;SDS011;57039;48.014;21.384;2022-12-18T06:38:18;105.22;;;41.97;;
69765;SDS011;57039;48.014;21.384;2022-12-18T06:39:21;127.25;;;48.60;;
69765;SDS011;57039;48.014;21.384;2022-12-18T06:40:24;124.95;;;49.40;;
69765;SDS011;57039;48.014;21.384;2022-12-18T06:41:27;78.78;;;31.45;;
69765;SDS011;57039;48.014;21.384;2022-12-18T06:42:29;71.00;;;25.48;;
69765;SDS011;57039;48.014;21.384;2022-12-18T06:43:32;64.73;;;25.20;;
69765;SDS011;57039;48.014;21.384;2022-12-18T06:44:35;75.68;;;28.17;;
69765;SDS011;57039;48.014;21.384;2022-12-18T06:45:38;74.97;;;28.00;;
69765;SDS011;57039;48.014;21.384;2022-12-18T06:46:41;74.07;;;28.00;;
69765;SDS011;57039;48.014;21.384;2022-12-18T06:47:44;80.28;;;32.08;;
69765;SDS011;57039;48.014;21.384;2022-12-18T06:48:47;76.50;;;31.37;;
69765;SDS011;57039;48.014;21.384;2022-12-18T06:49:51;77.10;;;31.83;;
69765;SDS011;57039;48.014;21.384;2022-12-18T06:50:54;77.78;;;28.67;;
69765;SDS011;57039;48.014;21.384;2022-12-18T06:51:57;75.78;;;28.38;;
69765;SDS011;57039;48.014;21.384;2022-12-18T06:53:00;63.03;;;24.98;;
69765;SDS011;57039;48.014;21.384;2022-12-18T06:54:04;74.83;;;27.80;;
69765;SDS011;57039;48.014;21.384;2022-12-18T06:55:07;75.97;;;27.73;;
69765;SDS011;57039;48.014;21.384;2022-12-18T06:56:11;68.25;;;26.67;;
69765;SDS011;57039;48.014;21.384;2022-12-18T06:57:14;80.62;;;28.33;;
69765;SDS011;57039;48.014;21.384;2022-12-18T06:58:17;76.35;;;29.67;;
69765;SDS011;57039;48.014;21.384;2022-12-18T06:59:20;93.10;;;30.98;;
69765;SDS011;57039;48.014;21.384;2022-12-18T07:00:23;86.05;;;27.37;;
69765;SDS011;57039;48.014;21.384;2022-12-18T07:01:26;79.12;;;27.83;;
69765;SDS011;57039;48.014;21.384;2022-12-18T07:02:30;98.70;;;29.90;;
69765;SDS011;57039;48.014;21.384;2022-12-18T07:03:32;85.85;;;29.00;;
69765;SDS011;57039;48.014;21.384;2022-12-18T07:04:36;113.40;;;36.70;;
69765;SDS011;57039;48.014;21.384;2022-12-18T07:05:39;199.65;;;72.87;;
69765;SDS011;57039;48.014;21.384;2022-12-18T07:06:43;273.45;;;93.75;;
69765;SDS011;57039;48.014;21.384;2022-12-18T07:07:46;142.37;;;48.50;;
69765;SDS011;57039;48.014;21.384;2022-12-18T07:08:49;163.95;;;56.53;;
69765;SDS011;57039;48.014;21.384;2022-12-18T07:09:53;142.73;;;54.15;;
69765;SDS011;57039;48.014;21.384;2022-12-18T07:10:56;126.22;;;43.55;;
69765;SDS011;57039;48.014;21.384;2022-12-18T07:11:59;112.57;;;39.30;;
69765;SDS011;57039;48.014;21.384;2022-12-18T07:13:01;108.93;;;37.83;;
69765;SDS011;57039;48.014;21.384;2022-12-18T07:14:04;98.90;;;34.10;;
69765;SDS011;57039;48.014;21.384;2022-12-18T07:15:07;103.13;;;37.10;;
69765;SDS011;57039;48.014;21.384;2022-12-18T07:16:11;130.02;;;40.65;;
69765;SDS011;57039;48.014;21.384;2022-12-18T07:17:23;122.05;;;37.00;;
69765;SDS011;57039;48.014;21.384;2022-12-18T07:18:26;107.07;;;33.50;;
69765;SDS011;57039;48.014;21.384;2022-12-18T07:19:29;98.78;;;31.23;;
69765;SDS011;57039;48.014;21.384;2022-12-18T07:20:33;125.10;;;38.75;;
69765;SDS011;57039;48.014;21.384;2022-12-18T07:21:36;97.25;;;32.80;;
69765;SDS011;57039;48.014;21.384;2022-12-18T07:22:39;85.40;;;28.77;;
69765;SDS011;57039;48.014;21.384;2022-12-18T07:23:42;108.93;;;33.72;;
69765;SDS011;57039;48.014;21.384;2022-12-18T07:24:46;86.03;;;31.52;;
69765;SDS011;57039;48.014;21.384;2022-12-18T07:25:49;80.23;;;28.07;;
69765;SDS011;57039;48.014;21.384;2022-12-18T07:26:52;87.65;;;27.40;;
69765;SDS011;57039;48.014;21.384;2022-12-18T07:27:55;76.12;;;23.90;;
69765;SDS011;57039;48.014;21.384;2022-12-18T07:28:58;70.45;;;24.23;;
69765;SDS011;57039;48.014;21.384;2022-12-18T07:30:02;76.82;;;26.90;;
69765;SDS011;57039;48.014;21.384;2022-12-18T07:31:06;76.87;;;25.35;;
69765;SDS011;57039;48.014;21.384;2022-12-18T07:32:11;81.70;;;28.80;;
69765;SDS011;57039;48.014;21.384;2022-12-18T07:33:14;101.45;;;44.80;;
69765;SDS011;57039;48.014;21.384;2022-12-18T07:34:17;114.43;;;49.42;;
69765;SDS011;57039;48.014;21.384;2022-12-18T07:35:20;109.57;;;47.17;;
69765;SDS011;57039;48.014;21.384;2022-12-18T07:36:26;118.03;;;50.57;;
69765;SDS011;57039;48.014;21.384;2022-12-18T07:37:29;157.95;;;78.55;;
69765;SDS011;57039;48.014;21.384;2022-12-18T07:38:33;144.75;;;67.68;;
69765;SDS011;57039;48.014;21.384;2022-12-18T07:39:36;157.80;;;66.12;;
69765;SDS011;57039;48.014;21.384;2022-12-18T07:40:39;129.70;;;54.78;;
69765;SDS011;57039;48.014;21.384;2022-12-18T07:41:42;122.70;;;48.00;;
69765;SDS011;57039;48.014;21.384;2022-12-18T07:42:50;91.18;;;34.35;;
69765;SDS011;57039;48.014;21.384;2022-12-18T07:43:53;85.20;;;30.92;;
69765;SDS011;57039;48.014;21.384;2022-12-18T07:44:57;86.35;;;29.25;;
69765;SDS011;57039;48.014;21.384;2022-12-18T07:46:00;78.55;;;27.20;;
69765;SDS011;57039;48.014;21.384;2022-12-18T07:47:04;72.27;;;26.33;;
69765;SDS011;57039;48.014;21.384;2022-12-18T07:48:13;70.53;;;23.95;;
69765;SDS011;57039;48.014;21.384;2022-12-18T07:49:16;69.40;;;23.00;;
69765;SDS011;57039;48.014;21.384;2022-12-18T07:50:19;71.12;;;21.48;;
69765;SDS011;57039;48.014;21.384;2022-12-18T07:51:22;65.65;;;23.67;;
69765;SDS011;57039;48.014;21.384;2022-12-18T07:52:25;68.80;;;23.12;;
69765;SDS011;57039;48.014;21.384;2022-12-18T07:53:29;74.50;;;22.37;;
69765;SDS011;57039;48.014;21.384;2022-12-18T07:54:32;75.80;;;22.25;;
69765;SDS011;57039;48.014;21.384;2022-12-18T07:55:35;69.55;;;22.08;;
69765;SDS011;57039;48.014;21.384;2022-12-18T07:56:58;76.28;;;24.70;;
69765;SDS011;57039;48.014;21.384;2022-12-18T07:58:02;71.33;;;22.93;;
69765;SDS011;57039;48.014;21.384;2022-12-18T07:59:06;69.72;;;25.25;;
69765;SDS011;57039;48.014;21.384;2022-12-18T08:00:09;74.20;;;24.10;;
69765;SDS011;57039;48.014;21.384;2022-12-18T08:01:13;76.60;;;25.52;;
69765;SDS011;57039;48.014;21.384;2022-12-18T08:02:16;85.90;;;31.20;;
69765;SDS011;57039;48.014;21.384;2022-12-18T08:03:19;80.03;;;30.17;;
69765;SDS011;57039;48.014;21.384;2022-12-18T08:04:24;78.37;;;26.92;;
69765;SDS011;57039;48.014;21.384;2022-12-18T08:05:27;89.32;;;30.73;;
69765;SDS011;57039;48.014;21.384;2022-12-18T08:06:30;77.30;;;27.60;;
69765;SDS011;57039;48.014;21.384;2022-12-18T08:07:40;66.80;;;22.35;;
69765;SDS011;57039;48.014;21.384;2022-12-18T08:08:43;64.00;;;22.10;;
69765;SDS011;57039;48.014;21.384;2022-12-18T08:09:45;68.47;;;22.05;;
69765;SDS011;57039;48.014;21.384;2022-12-18T08:10:49;72.40;;;24.30;;
69765;SDS011;57039;48.014;21.384;2022-12-18T08:11:51;63.45;;;20.83;;
69765;SDS011;57039;48.014;21.384;2022-12-18T08:12:54;62.47;;;22.27;;
69765;SDS011;57039;48.014;21.384;2022-12-18T08:14:05;67.12;;;22.52;;
69765;SDS011;57039;48.014;21.384;2022-12-18T08:15:08;70.45;;;22.45;;
69765;SDS011;57039;48.014;21.384;2022-12-18T08:16:11;72.70;;;23.08;;
69765;SDS011;57039;48.014;21.384;2022-12-18T08:17:18;67.62;;;21.95;;
69765;SDS011;57039;48.014;21.384;2022-12-18T08:18:23;68.80;;;23.83;;
69765;SDS011;57039;48.014;21.384;2022-12-18T08:19:26;70.20;;;24.10;;
69765;SDS011;57039;48.014;21.384;2022-12-18T08:20:29;65.18;;;23.33;;
69765;SDS011;57039;48.014;21.384;2022-12-18T08:21:32;61.67;;;22.00;;
69765;SDS011;57039;48.014;21.384;2022-12-18T08:22:35;53.35;;;19.92;;
69765;SDS011;57039;48.014;21.384;2022-12-18T08:23:41;61.63;;;22.48;;
69765;SDS011;57039;48.014;21.384;2022-12-18T08:24:45;79.30;;;26.12;;
69765;SDS011;57039;48.014;21.384;2022-12-18T08:25:48;66.62;;;21.73;;
69765;SDS011;57039;48.014;21.384;2022-12-18T08:26:50;74.57;;;26.52;;
69765;SDS011;57039;48.014;21.384;2022-12-18T08:28:13;78.07;;;27.92;;
69765;SDS011;57039;48.014;21.384;2022-12-18T08:29:18;85.43;;;28.90;;
69765;SDS011;57039;48.014;21.384;2022-12-18T08:30:23;87.43;;;31.40;;
69765;SDS011;57039;48.014;21.384;2022-12-18T08:31:26;147.07;;;46.05;;
69765;SDS011;57039;48.014;21.384;2022-12-18T08:32:30;70.18;;;25.50;;
69765;SDS011;57039;48.014;21.384;2022-12-18T08:33:35;71.30;;;24.98;;
69765;SDS011;57039;48.014;21.384;2022-12-18T08:34:40;91.65;;;32.20;;
69765;SDS011;57039;48.014;21.384;2022-12-18T08:35:43;70.45;;;24.80;;
69765;SDS011;57039;48.014;21.384;2022-12-18T08:36:48;69.93;;;26.33;;
69765;SDS011;57039;48.014;21.384;2022-12-18T08:37:50;70.00;;;24.42;;
69765;SDS011;57039;48.014;21.384;2022-12-18T08:38:53;68.45;;;23.17;;
69765;SDS011;57039;48.014;21.384;2022-12-18T08:39:57;64.62;;;22.10;;
69765;SDS011;57039;48.014;21.384;2022-12-18T08:41:00;64.73;;;24.67;;
69765;SDS011;57039;48.014;21.384;2022-12-18T08:42:03;72.80;;;24.90;;
69765;SDS011;57039;48.014;21.384;2022-12-18T08:43:24;80.28;;;26.83;;
69765;SDS011;57039;48.014;21.384;2022-12-18T08:44:46;78.20;;;24.60;;
69765;SDS011;57039;48.014;21.384;2022-12-18T08:45:49;64.55;;;23.38;;
69765;SDS011;57039;48.014;21.384;2022-12-18T08:46:52;76.43;;;25.20;;
69765;SDS011;57039;48.014;21.384;2022-12-18T08:47:55;71.00;;;25.52;;
69765;SDS011;57039;48.014;21.384;2022-12-18T08:48:58;70.97;;;24.05;;
69765;SDS011;57039;48.014;21.384;2022-12-18T08:50:01;67.12;;;23.17;;
69765;SDS011;57039;48.014;21.384;2022-12-18T08:51:05;59.88;;;23.70;;
69765;SDS011;57039;48.014;21.384;2022-12-18T08:52:08;72.57;;;23.20;;
69765;SDS011;57039;48.014;21.384;2022-12-18T08:53:11;64.40;;;22.55;;
69765;SDS011;57039;48.014;21.384;2022-12-18T08:54:14;65.40;;;21.20;;
69765;SDS011;57039;48.014;21.384;2022-12-18T08:55:17;68.32;;;23.48;;
69765;SDS011;57039;48.014;21.384;2022-12-18T08:56:22;70.00;;;24.42;;
69765;SDS011;57039;48.014;21.384;2022-12-18T08:57:24;71.95;;;23.12;;
69765;SDS011;57039;48.014;21.384;2022-12-18T08:58:29;77.72;;;25.08;;
69765;SDS011;57039;48.014;21.384;2022-12-18T08:59:32;84.40;;;30.62;;
69765;SDS011;57039;48.014;21.384;2022-12-18T09:00:34;86.90;;;31.70;;
69765;SDS011;57039;48.014;21.384;2022-12-18T09:01:38;111.82;;;38.35;;
69765;SDS011;57039;48.014;21.384;2022-12-18T09:02:41;73.57;;;27.37;;
69765;SDS011;57039;48.014;21.384;2022-12-18T09:03:44;83.03;;;30.52;;
69765;SDS011;57039;48.014;21.384;2022-12-18T09:04:47;94.53;;;30.60;;
69765;SDS011;57039;48.014;21.384;2022-12-18T09:05:58;58.72;;;19.98;;
69765;SDS011;57039;48.014;21.384;2022-12-18T09:07:02;118.15;;;36.38;;
69765;SDS011;57039;48.014;21.384;2022-12-18T09:08:05;100.78;;;33.17;;
69765;SDS011;57039;48.014;21.384;2022-12-18T09:09:08;87.82;;;28.00;;
69765;SDS011;57039;48.014;21.384;2022-12-18T09:10:12;87.93;;;29.95;;
69765;SDS011;57039;48.014;21.384;2022-12-18T09:11:17;126.07;;;42.10;;
69765;SDS011;57039;48.014;21.384;2022-12-18T09:12:23;106.43;;;36.10;;
69765;SDS011;57039;48.014;21.384;2022-12-18T09:13:26;127.40;;;43.77;;
69765;SDS011;57039;48.014;21.384;2022-12-18T09:14:29;121.10;;;42.85;;
69765;SDS011;57039;48.014;21.384;2022-12-18T09:15:31;88.62;;;29.37;;
69765;SDS011;57039;48.014;21.384;2022-12-18T09:16:34;121.60;;;42.30;;
69765;SDS011;57039;48.014;21.384;2022-12-18T09:17:38;92.03;;;34.17;;
69765;SDS011;57039;48.014;21.384;2022-12-18T09:18:41;98.87;;;34.70;;
69765;SDS011;57039;48.014;21.384;2022-12-18T09:19:45;90.78;;;30.40;;
69765;SDS011;57039;48.014;21.384;2022-12-18T09:20:48;97.00;;;32.15;;
69765;SDS011;57039;48.014;21.384;2022-12-18T09:21:52;89.10;;;31.23;;
69765;SDS011;57039;48.014;21.384;2022-12-18T09:22:56;80.18;;;29.20;;
69765;SDS011;57039;48.014;21.384;2022-12-18T09:23:58;96.17;;;32.90;;
69765;SDS011;57039;48.014;21.384;2022-12-18T09:25:01;83.87;;;29.52;;
69765;SDS011;57039;48.014;21.384;2022-12-18T09:26:04;82.30;;;34.78;;
69765;SDS011;57039;48.014;21.384;2022-12-18T09:27:07;82.65;;;31.98;;
69765;SDS011;57039;48.014;21.384;2022-12-18T09:28:14;93.57;;;34.00;;
69765;SDS011;57039;48.014;21.384;2022-12-18T09:29:18;68.60;;;23.48;;
69765;SDS011;57039;48.014;21.384;2022-12-18T09:30:21;69.90;;;25.58;;
69765;SDS011;57039;48.014;21.384;2022-12-18T09:31:24;81.12;;;29.92;;
69765;SDS011;57039;48.014;21.384;2022-12-18T09:32:27;79.15;;;28.45;;
69765;SDS011;57039;48.014;21.384;2022-12-18T09:33:31;67.68;;;24.15;;
69765;SDS011;57039;48.014;21.384;2022-12-18T09:34:34;68.57;;;25.47;;
69765;SDS011;57039;48.014;21.384;2022-12-18T09:35:37;71.60;;;25.95;;
69765;SDS011;57039;48.014;21.384;2022-12-18T09:36:39;75.85;;;27.67;;
69765;SDS011;57039;48.014;21.384;2022-12-18T09:37:43;70.20;;;25.10;;
69765;SDS011;57039;48.014;21.384;2022-12-18T09:38:46;61.90;;;21.73;;
69765;SDS011;57039;48.014;21.384;2022-12-18T09:39:48;62.80;;;20.90;;
69765;SDS011;57039;48.014;21.384;2022-12-18T09:40:52;67.45;;;24.87;;
69765;SDS011;57039;48.014;21.384;2022-12-18T09:41:58;82.68;;;29.10;;
69765;SDS011;57039;48.014;21.384;2022-12-18T09:43:03;64.45;;;24.55;;
69765;SDS011;57039;48.014;21.384;2022-12-18T09:45:18;60.43;;;21.13;;
69765;SDS011;57039;48.014;21.384;2022-12-18T09:46:23;71.82;;;26.60;;
69765;SDS011;57039;48.014;21.384;2022-12-18T09:47:33;60.38;;;22.15;;
69765;SDS011;57039;48.014;21.384;2022-12-18T09:48:42;66.60;;;24.80;;
69765;SDS011;57039;48.014;21.384;2022-12-18T09:49:49;82.57;;;31.52;;
69765;SDS011;57039;48.014;21.384;2022-12-18T09:50:57;59.90;;;22.73;;
69765;SDS011;57039;48.014;21.384;2022-12-18T09:52:08;60.33;;;20.25;;
69765;SDS011;57039;48.014;21.384;2022-12-18T09:53:20;69.60;;;25.58;;
69765;SDS011;57039;48.014;21.384;2022-12-18T09:54:36;60.88;;;20.98;;
69765;SDS011;57039;48.014;21.384;2022-12-18T09:55:44;69.22;;;25.73;;
69765;SDS011;57039;48.014;21.384;2022-12-18T09:56:49;61.30;;;22.13;;
69765;SDS011;57039;48.014;21.384;2022-12-18T09:57:53;57.15;;;20.77;;
69765;SDS011;57039;48.014;21.384;2022-12-18T09:59:02;54.65;;;20.77;;
69765;SDS011;57039;48.014;21.384;2022-12-18T10:01:17;58.15;;;23.90;;
69765;SDS011;57039;48.014;21.384;2022-12-18T10:02:25;54.65;;;19.27;;
69765;SDS011;57039;48.014;21.384;2022-12-18T10:03:29;52.88;;;18.80;;
69765;SDS011;57039;48.014;21.384;2022-12-18T10:04:32;58.30;;;21.55;;
69765;SDS011;57039;48.014;21.384;2022-12-18T10:05:37;74.05;;;29.02;;
69765;SDS011;57039;48.014;21.384;2022-12-18T10:07:00;65.28;;;22.92;;
69765;SDS011;57039;48.014;21.384;2022-12-18T10:09:22;69.40;;;23.77;;
69765;SDS011;57039;48.014;21.384;2022-12-18T10:18:25;59.88;;;20.35;;
69765;SDS011;57039;48.014;21.384;2022-12-18T10:19:47;59.10;;;20.42;;
69765;SDS011;57039;48.014;21.384;2022-12-18T10:21:00;50.87;;;17.67;;
69765;SDS011;57039;48.014;21.384;2022-12-18T10:24:39;55.70;;;19.48;;
69765;SDS011;57039;48.014;21.384;2022-12-18T10:26:08;61.58;;;21.75;;
69765;SDS011;57039;48.014;21.384;2022-12-18T10:27:16;98.10;;;32.58;;
69765;SDS011;57039;48.014;21.384;2022-12-18T10:28:24;105.15;;;36.53;;